Time;durP1;ratioP1;P1;durP2;ratioP2;P2;SDS_P1;SDS_P2;PMS_P1;PMS_P2;Temp;Humidity;BMP_temperature;BMP_pressure;BME280_temperature;BME280_humidity;BME280_pressure;Samples;Min_cycle;Max_cycle;Signal;HPM_P1;HPM_P2
2021/12/17 00:07:02;;;;;;;11.37;6.63;;;;;;;2.19;100.00;95198.50;5033757;28;20205;-63
2021/12/17 00:09:28;;;;;;;9.53;6.20;;;;;;;2.20;100.00;95207.63;5032523;28;20210;-63
2021/12/17 00:11:54;;;;;;;12.60;7.50;;;;;;;2.23;100.00;95206.69;5033511;28;20205;-64
2021/12/17 00:14:26;;;;;;;10.13;6.43;;;;;;;2.20;100.00;95209.34;5034006;28;20204;-61
2021/12/17 00:16:54;;;;;;;8.73;6.07;;;;;;;2.17;100.00;95207.78;5016899;28;20213;-63
2021/12/17 00:19:39;;;;;;;9.03;6.07;;;;;;;2.14;100.00;95207.91;5032348;28;20704;-64
2021/12/17 00:49:25;;;;;;;9.50;6.30;;;;;;;2.19;100.00;95215.22;5034122;28;20209;-66
2021/12/17 00:54:29;;;;;;;9.77;6.13;;;;;;;2.16;100.00;95210.38;5034043;28;20179;-63
2021/12/17 00:56:56;;;;;;;9.67;5.33;;;;;;;2.22;100.00;95215.13;5034148;28;20197;-64
2021/12/17 00:59:22;;;;;;;8.57;4.93;;;;;;;2.22;100.00;95220.13;5032839;28;20182;-62
2021/12/17 01:01:49;;;;;;;8.00;5.37;;;;;;;2.33;100.00;95225.47;5032486;28;20243;-61
2021/12/17 01:04:15;;;;;;;8.00;5.23;;;;;;;2.33;100.00;95228.00;5033919;28;20689;-62
2021/12/17 01:06:41;;;;;;;8.57;5.20;;;;;;;2.31;100.00;95222.22;5033877;28;20289;-62
2021/12/17 01:09:12;;;;;;;8.27;5.13;;;;;;;2.33;100.00;95222.97;5033653;28;20213;-64
2021/12/17 01:11:38;;;;;;;6.60;4.33;;;;;;;2.35;100.00;95222.03;5033842;28;20594;-64
2021/12/17 01:14:04;;;;;;;7.57;4.90;;;;;;;2.34;100.00;95222.91;5032596;28;20574;-62
2021/12/17 01:16:30;;;;;;;7.90;5.07;;;;;;;2.41;100.00;95214.22;5033726;28;20210;-64
2021/12/17 01:35:28;;;;;;;7.13;4.30;;;;;;;2.45;100.00;95208.19;5033608;28;20173;-62
2021/12/17 01:43:53;;;;;;;6.07;3.90;;;;;;;2.53;100.00;95200.31;5029752;28;20286;-64
2021/12/17 01:46:27;;;;;;;5.50;3.50;;;;;;;2.55;100.00;95198.56;5031848;28;20285;-63
2021/12/17 01:49:27;;;;;;;4.67;3.43;;;;;;;2.56;100.00;95200.19;5033066;28;20172;-65
2021/12/17 02:00:12;;;;;;;6.07;3.40;;;;;;;2.62;100.00;95202.44;5032962;28;20201;-64
2021/12/17 02:02:44;;;;;;;4.90;3.23;;;;;;;2.67;100.00;95202.22;5033079;28;20344;-64
2021/12/17 02:05:11;;;;;;;4.10;2.70;;;;;;;2.71;100.00;95219.56;5032731;28;20177;-64
2021/12/17 02:07:37;;;;;;;4.77;3.37;;;;;;;2.69;100.00;95213.81;5032989;28;20203;-62
2021/12/17 02:29:00;;;;;;;4.50;2.97;;;;;;;2.65;100.00;95176.41;5032589;28;20568;-66
2021/12/17 02:31:30;;;;;;;6.20;3.20;;;;;;;2.62;100.00;95177.34;5032236;28;20200;-63
2021/12/17 02:34:01;;;;;;;4.50;3.10;;;;;;;2.70;100.00;95172.78;5031154;28;20183;-65
2021/12/17 02:36:31;;;;;;;7.60;3.50;;;;;;;2.73;100.00;95179.38;5030960;28;20206;-64
2021/12/17 02:47:29;;;;;;;4.93;2.93;;;;;;;2.73;100.00;95172.63;5012870;28;20224;-63
2021/12/17 02:49:54;;;;;;;6.87;4.00;;;;;;;2.70;100.00;95167.75;5012231;28;20202;-65
2021/12/17 02:52:25;;;;;;;4.90;3.27;;;;;;;2.72;100.00;95175.22;5012382;28;20286;-64
2021/12/17 02:54:52;;;;;;;5.47;3.33;;;;;;;2.79;100.00;95169.84;5012541;28;20257;-62
2021/12/17 02:57:17;;;;;;;5.30;3.63;;;;;;;2.82;100.00;95177.25;5012207;28;20203;-61
2021/12/17 02:59:43;;;;;;;4.80;3.50;;;;;;;2.77;100.00;95174.13;5018304;23;20620;-65
2021/12/17 03:02:10;;;;;;;5.90;4.07;;;;;;;2.78;100.00;95160.69;5010709;28;20209;-65
2021/12/17 03:04:40;;;;;;;5.20;3.57;;;;;;;2.85;100.00;95174.56;5012339;28;20569;-64
2021/12/17 03:07:09;;;;;;;6.80;3.93;;;;;;;2.87;100.00;95177.03;5012198;28;20635;-61
2021/12/17 03:12:44;;;;;;;5.80;3.67;;;;;;;2.83;100.00;95165.50;5012234;28;20699;-62
2021/12/17 03:15:17;;;;;;;7.00;4.43;;;;;;;2.82;100.00;95157.16;5011878;28;20191;-64
2021/12/17 03:25:45;;;;;;;7.87;4.27;;;;;;;2.78;100.00;95139.78;5011877;28;20210;-64
2021/12/17 03:28:10;;;;;;;7.37;4.93;;;;;;;2.81;100.00;95139.66;5011834;28;20179;-65
2021/12/17 03:30:36;;;;;;;6.73;4.40;;;;;;;2.81;100.00;95137.16;5013153;28;20214;-65
2021/12/17 03:33:02;;;;;;;9.27;5.10;;;;;;;2.66;100.00;95131.16;5015803;28;20213;-61
2021/12/17 03:35:27;;;;;;;8.83;5.37;;;;;;;2.61;100.00;95137.28;5014382;28;20227;-64
2021/12/17 03:37:53;;;;;;;9.83;5.13;;;;;;;2.57;100.00;95139.09;5015950;28;20186;-63
2021/12/17 03:40:20;;;;;;;8.83;5.23;;;;;;;2.56;100.00;95139.97;5015961;28;20606;-61
2021/12/17 03:42:48;;;;;;;9.63;5.37;;;;;;;2.62;100.00;95139.69;5014447;28;20187;-64
2021/12/17 03:45:16;;;;;;;10.60;5.93;;;;;;;2.60;100.00;95131.44;5015548;28;20217;-65
2021/12/17 03:47:41;;;;;;;8.97;5.27;;;;;;;2.70;100.00;95130.13;5014212;28;20187;-62
2021/12/17 03:50:07;;;;;;;7.97;5.47;;;;;;;2.71;100.00;95138.47;5015408;28;20213;-63
2021/12/17 03:52:33;;;;;;;9.63;5.40;;;;;;;2.65;100.00;95131.22;5015343;28;20360;-63
2021/12/17 03:54:58;;;;;;;8.63;5.10;;;;;;;2.68;100.00;95124.34;5014136;28;20645;-61
2021/12/17 03:57:24;;;;;;;7.83;5.30;;;;;;;2.75;100.00;95128.19;5015432;28;20325;-64
2021/12/17 03:59:50;;;;;;;8.50;5.00;;;;;;;2.79;100.00;95123.88;5014262;28;20657;-64
2021/12/17 04:02:16;;;;;;;7.07;4.80;;;;;;;2.76;100.00;95117.28;5013828;28;20688;-64
2021/12/17 04:04:42;;;;;;;8.43;5.60;;;;;;;2.74;100.00;95116.53;5015154;28;20283;-62
2021/12/17 04:07:07;;;;;;;6.50;4.63;;;;;;;2.70;100.00;95110.03;5015158;28;20576;-61
2021/12/17 04:09:33;;;;;;;7.37;4.73;;;;;;;2.66;100.00;95106.06;5013668;28;20662;-65
2021/12/17 04:12:01;;;;;;;7.50;4.97;;;;;;;2.66;100.00;95110.25;5014416;28;20245;-64
2021/12/17 04:14:34;;;;;;;6.77;4.33;;;;;;;2.61;100.00;95112.97;5013929;28;20191;-61
2021/12/17 04:17:04;;;;;;;7.53;4.70;;;;;;;2.64;100.00;95105.31;5014691;28;20202;-66
2021/12/17 04:19:29;;;;;;;7.30;4.90;;;;;;;2.59;100.00;95103.91;5013819;28;20237;-61
2021/12/17 04:21:55;;;;;;;5.67;4.13;;;;;;;2.53;100.00;95094.94;5014716;28;20703;-63
2021/12/17 04:24:21;;;;;;;6.27;4.90;;;;;;;2.54;100.00;95101.59;5013985;28;20187;-64
2021/12/17 04:26:46;;;;;;;8.00;4.83;;;;;;;2.43;100.00;95092.06;5014941;28;20719;-64
2021/12/17 04:29:12;;;;;;;6.63;4.20;;;;;;;2.47;100.00;95090.22;5015387;28;20299;-62
2021/12/17 04:31:37;;;;;;;7.70;4.33;;;;;;;2.46;100.00;95081.88;5015101;28;20209;-63
2021/12/17 04:34:03;;;;;;;6.77;4.37;;;;;;;2.59;100.00;95069.56;5014929;28;20191;-64
2021/12/17 04:36:32;;;;;;;8.80;5.20;;;;;;;2.63;100.00;95066.03;5014779;28;20230;-62
2021/12/17 04:39:00;;;;;;;7.90;4.90;;;;;;;2.62;100.00;95064.44;5015232;28;20614;-63
2021/12/17 04:46:35;;;;;;;6.50;4.50;;;;;;;2.74;100.00;95066.34;5014961;28;20194;-64
2021/12/17 04:57:19;;;;;;;6.20;4.70;;;;;;;2.72;100.00;95060.59;5014708;28;20265;-64
2021/12/17 04:57:35;;;;;;;5.53;3.97;;;;;;;2.80;100.00;95060.22;5014492;28;20224;-64
2021/12/17 05:00:19;;;;;;;4.97;3.63;;;;;;;2.76;100.00;95061.25;5014352;28;20183;-63
2021/12/17 05:02:49;;;;;;;6.63;4.10;;;;;;;4.14;100.00;95055.81;5013892;28;20188;-65
2021/12/17 05:05:16;;;;;;;7.03;4.60;;;;;;;3.72;100.00;95063.06;5012326;28;20644;-62
2021/12/17 05:07:51;;;;;;;6.37;4.23;;;;;;;3.48;100.00;95070.19;5012739;28;20182;-63
2021/12/17 05:18:29;;;;;;;4.90;3.53;;;;;;;3.27;100.00;95066.25;5014540;28;20276;-62
2021/12/17 05:21:04;;;;;;;6.87;4.43;;;;;;;3.10;100.00;95067.06;5013935;28;20200;-65
2021/12/17 05:23:35;;;;;;;5.93;4.10;;;;;;;3.22;100.00;95061.44;5014051;28;20194;-64
2021/12/17 05:26:04;;;;;;;5.70;3.80;;;;;;;3.16;100.00;95073.50;5012609;28;20218;-64
2021/12/17 05:28:29;;;;;;;6.00;4.20;;;;;;;3.26;100.00;95072.16;5013999;28;20550;-64
2021/12/17 05:30:56;;;;;;;7.07;4.23;;;;;;;3.57;100.00;95066.41;5013600;28;20207;-65
2021/12/17 05:33:23;;;;;;;6.50;4.17;;;;;;;3.58;100.00;95062.97;5013443;28;20274;-64
2021/12/17 05:35:49;;;;;;;5.67;4.13;;;;;;;3.50;100.00;95073.41;5013454;28;20273;-64
2021/12/17 05:38:18;;;;;;;7.10;4.67;;;;;;;3.46;100.00;95068.63;5012360;28;20275;-64
2021/12/17 05:40:44;;;;;;;7.87;5.00;;;;;;;3.31;100.00;95060.19;5013563;28;20206;-65
2021/12/17 05:43:11;;;;;;;7.10;4.53;;;;;;;2.99;100.00;95059.25;5013601;28;20195;-64
2021/12/17 05:45:48;;;;;;;7.63;4.87;;;;;;;2.93;100.00;95058.75;5011988;28;20211;-63
2021/12/17 05:48:18;;;;;;;6.37;4.47;;;;;;;3.04;100.00;95061.53;5012252;28;20183;-63
2021/12/17 05:50:45;;;;;;;5.73;4.30;;;;;;;3.05;100.00;95055.63;5013368;28;20222;-64
2021/12/17 05:53:11;;;;;;;6.60;3.67;;;;;;;2.98;100.00;95049.28;5012773;28;20274;-62
2021/12/17 05:55:38;;;;;;;11.77;5.47;;;;;;;3.15;100.00;95047.56;5012793;28;20206;-62
2021/12/17 05:58:05;;;;;;;5.87;4.30;;;;;;;3.16;100.00;95051.69;5013255;28;20636;-63
2021/12/17 06:00:31;;;;;;;7.27;4.63;;;;;;;3.49;100.00;95056.75;5013007;28;20183;-63
2021/12/17 06:02:58;;;;;;;7.17;4.47;;;;;;;3.43;100.00;95062.88;5013259;28;20194;-62
2021/12/17 06:05:25;;;;;;;5.03;3.57;;;;;;;3.56;100.00;95074.81;5013081;28;20224;-61
2021/12/17 06:07:51;;;;;;;5.87;3.93;;;;;;;3.42;100.00;95078.03;5013043;28;20191;-63
2021/12/17 06:10:16;;;;;;;4.20;3.10;;;;;;;3.19;100.00;95058.28;5012497;28;20217;-64
2021/12/17 06:12:42;;;;;;;4.80;3.10;;;;;;;3.10;100.00;95079.63;5011355;28;20199;-63
2021/12/17 06:15:16;;;;;;;4.53;2.90;;;;;;;3.03;100.00;95080.00;5011367;28;20644;-63
2021/12/17 06:17:42;;;;;;;3.33;2.13;;;;;;;3.01;100.00;95086.81;5012838;28;20179;-64
2021/12/17 06:20:10;;;;;;;4.20;2.07;;;;;;;3.02;100.00;95090.94;5012743;28;20205;-65
2021/12/17 06:22:35;;;;;;;2.80;2.17;;;;;;;3.13;100.00;95093.75;5012818;28;20222;-63
2021/12/17 06:25:02;;;;;;;4.00;2.70;;;;;;;3.07;100.00;95089.03;5011121;28;20190;-64
2021/12/17 06:27:28;;;;;;;2.53;2.30;;;;;;;3.07;100.00;95094.84;5012546;28;20211;-64
2021/12/17 06:29:54;;;;;;;2.83;2.10;;;;;;;3.11;100.00;95083.75;5011430;28;20259;-65
2021/12/17 06:32:21;;;;;;;5.50;2.93;;;;;;;3.19;100.00;95076.66;5012617;28;20234;-64
2021/12/17 06:34:48;;;;;;;5.40;3.00;;;;;;;3.50;100.00;95070.91;5011364;28;20258;-65
2021/12/17 06:37:15;;;;;;;5.37;3.00;;;;;;;3.32;100.00;95076.88;5012705;28;20198;-65
2021/12/17 06:39:41;;;;;;;2.87;2.60;;;;;;;3.13;100.00;95073.66;5013087;28;20265;-62
2021/12/17 06:42:07;;;;;;;2.90;2.40;;;;;;;3.18;100.00;95085.09;5012549;28;20226;-65
2021/12/17 06:44:32;;;;;;;4.17;2.40;;;;;;;3.19;100.00;95079.16;5012516;28;20655;-65
2021/12/17 07:00:16;;;;;;;2.07;1.83;;;;;;;3.02;100.00;95081.69;5032375;28;20723;-61
2021/12/17 07:10:52;;;;;;;3.80;2.70;;;;;;;2.84;100.00;95069.22;5012056;28;20235;-62
2021/12/17 07:34:12;;;;;;;7.97;4.07;;;;;;;2.98;100.00;95061.84;5032275;28;20205;-64
2021/12/17 07:36:42;;;;;;;6.13;3.60;;;;;;;3.07;100.00;95061.41;5030215;28;20202;-65
2021/12/17 07:39:08;;;;;;;6.50;3.87;;;;;;;2.94;100.00;95058.66;5031657;28;20189;-61
2021/12/17 07:41:33;;;;;;;6.60;4.27;;;;;;;2.94;100.00;95051.13;5030166;28;20208;-66
2021/12/17 07:44:01;;;;;;;4.03;3.03;;;;;;;2.93;100.00;95044.47;5031491;28;20276;-64
2021/12/17 07:46:26;;;;;;;5.60;3.60;;;;;;;2.95;100.00;95062.00;5031360;28;20190;-65
2021/12/17 07:48:52;;;;;;;8.03;4.73;;;;;;;2.89;100.00;95060.56;5031228;28;20275;-63
2021/12/17 07:51:20;;;;;;;9.40;4.53;;;;;;;2.87;100.00;95059.84;5031303;28;20684;-64
2021/12/17 07:53:48;;;;;;;6.33;4.23;;;;;;;2.90;100.00;95052.16;5031632;28;20210;-65
2021/12/17 07:56:16;;;;;;;6.77;4.47;;;;;;;2.91;100.00;95056.28;5029967;28;20209;-63
2021/12/17 07:58:42;;;;;;;6.13;4.93;;;;;;;2.88;100.00;95051.44;5031266;28;20189;-62
2021/12/17 08:01:10;;;;;;;6.40;4.90;;;;;;;2.93;100.00;95053.72;5031102;28;20201;-64
2021/12/17 08:03:39;;;;;;;5.97;4.43;;;;;;;3.03;100.00;95054.91;5031310;28;20621;-63
2021/12/17 08:06:05;;;;;;;8.07;5.30;;;;;;;3.01;100.00;95059.97;5031064;28;20285;-62
2021/12/17 08:08:30;;;;;;;6.00;4.23;;;;;;;3.02;100.00;95058.28;5031331;28;20275;-64
2021/12/17 08:10:56;;;;;;;7.47;5.07;;;;;;;3.02;100.00;95066.63;5031048;28;20308;-64
2021/12/17 08:13:26;;;;;;;6.90;5.30;;;;;;;3.00;100.00;95068.41;5029807;28;20224;-63
2021/12/17 08:28:56;;;;;;;8.07;5.23;;;;;;;2.90;100.00;95054.69;5034983;28;20279;-64
2021/12/17 08:31:22;;;;;;;7.47;5.40;;;;;;;2.93;100.00;95057.03;5034357;28;20214;-63
2021/12/17 08:33:48;;;;;;;9.50;5.43;;;;;;;3.01;100.00;95059.97;5034651;28;20610;-66
2021/12/17 08:36:14;;;;;;;8.23;5.33;;;;;;;3.08;100.00;95053.78;5034678;28;20582;-65
2021/12/17 08:38:41;;;;;;;7.60;5.63;;;;;;;3.09;100.00;95052.88;5033161;28;20194;-64
2021/12/17 08:41:09;;;;;;;7.23;5.20;;;;;;;3.10;100.00;95059.53;5034149;28;20289;-64
2021/12/17 08:43:34;;;;;;;6.23;4.77;;;;;;;3.08;100.00;95053.78;5033017;28;20227;-64
2021/12/17 08:45:59;;;;;;;9.13;5.83;;;;;;;3.16;100.00;95045.84;5034160;28;20237;-63
2021/12/17 08:48:25;;;;;;;7.33;4.87;;;;;;;3.20;100.00;95037.28;5032874;28;20187;-62
2021/12/17 08:50:50;;;;;;;6.17;5.00;;;;;;;3.22;100.00;95040.53;5034149;28;20649;-66
2021/12/17 08:53:16;;;;;;;6.17;4.97;;;;;;;3.24;100.00;95034.56;5034307;28;20178;-63
2021/12/17 08:55:41;;;;;;;8.03;4.80;;;;;;;3.30;100.00;95030.91;5041204;22;20198;-63
2021/12/17 08:58:12;;;;;;;6.90;4.97;;;;;;;3.27;100.00;95031.88;5034118;28;20179;-64
2021/12/17 09:00:37;;;;;;;5.67;4.50;;;;;;;3.42;100.00;95032.81;5034208;28;20627;-64
2021/12/17 09:03:03;;;;;;;5.90;4.83;;;;;;;3.48;100.00;95031.66;5032599;28;20222;-62
2021/12/17 09:05:28;;;;;;;4.97;3.57;;;;;;;3.47;100.00;95025.03;5033816;28;20190;-63
2021/12/17 09:07:54;;;;;;;7.37;4.53;;;;;;;3.52;100.00;95028.09;5033991;28;20185;-65
2021/12/17 09:10:22;;;;;;;5.30;4.30;;;;;;;3.55;100.00;95017.91;5033753;28;20247;-65
2021/12/17 09:12:48;;;;;;;5.77;4.17;;;;;;;3.56;100.00;95025.38;5033836;28;20636;-64
2021/12/17 09:15:14;;;;;;;5.73;4.17;;;;;;;3.54;100.00;95018.78;5033585;28;20265;-62
2021/12/17 09:17:40;;;;;;;5.97;4.63;;;;;;;3.50;100.00;95020.66;5033751;28;20321;-64
2021/12/17 09:20:06;;;;;;;6.47;4.07;;;;;;;3.47;100.00;95020.00;5033423;28;20215;-63
2021/12/17 09:22:32;;;;;;;7.63;4.73;;;;;;;3.54;100.00;95011.25;5032158;28;20213;-62
2021/12/17 09:24:58;;;;;;;6.97;4.63;;;;;;;3.52;100.00;95001.28;5033410;28;20296;-63
2021/12/17 09:27:23;;;;;;;9.43;5.40;;;;;;;3.60;100.00;94995.84;5032146;28;20281;-62
2021/12/17 09:29:49;;;;;;;6.63;4.77;;;;;;;3.64;100.00;94999.81;5033581;28;20213;-64
2021/12/17 09:32:14;;;;;;;7.13;5.77;;;;;;;3.68;100.00;94999.59;5034106;28;20305;-62
2021/12/17 09:34:40;;;;;;;7.27;4.97;;;;;;;3.65;100.00;95003.97;5033274;28;20221;-64
2021/12/17 09:37:06;;;;;;;7.00;5.23;;;;;;;3.65;100.00;94998.94;5033737;28;20706;-65
2021/12/17 09:39:32;;;;;;;7.13;5.50;;;;;;;3.69;100.00;94988.66;5033261;28;20182;-62
2021/12/17 09:41:57;;;;;;;7.87;5.80;;;;;;;3.63;100.00;94986.47;5031888;28;20548;-64
2021/12/17 09:44:23;;;;;;;7.60;6.27;;;;;;;3.66;100.00;94978.75;5033050;28;20196;-66
2021/12/17 09:46:49;;;;;;;8.80;5.77;;;;;;;3.76;100.00;94974.84;5033608;28;20256;-64
2021/12/17 09:49:17;;;;;;;7.07;5.60;;;;;;;3.69;100.00;94966.03;5032940;28;20182;-64
2021/12/17 09:51:43;;;;;;;7.57;5.77;;;;;;;3.66;100.00;94961.16;5033453;28;20305;-64
2021/12/17 09:54:10;;;;;;;7.90;5.27;;;;;;;3.65;100.00;94953.72;5032823;28;20189;-63
2021/12/17 09:56:36;;;;;;;7.23;5.80;;;;;;;3.70;100.00;94954.25;5031785;28;20223;-64
2021/12/17 09:59:01;;;;;;;6.80;5.57;;;;;;;3.71;100.00;94949.16;5033027;28;20197;-62
2021/12/17 10:01:27;;;;;;;10.60;5.20;;;;;;;3.73;100.00;94959.97;5032982;28;20214;-61
2021/12/17 10:04:14;;;;;;;7.53;5.63;;;;;;;3.78;100.00;94950.44;5032865;28;20240;-63
2021/12/17 10:06:40;;;;;;;7.17;5.90;;;;;;;3.88;100.00;94955.81;5032963;28;20198;-64
2021/12/17 10:09:06;;;;;;;7.03;5.67;;;;;;;3.93;100.00;94943.78;5032586;28;20301;-65
2021/12/17 10:11:31;;;;;;;7.33;5.57;;;;;;;3.95;100.00;94930.25;5032914;28;20202;-65
2021/12/17 10:14:22;;;;;;;7.57;5.67;;;;;;;3.88;100.00;94923.13;5031449;28;20571;-64
2021/12/17 10:16:48;;;;;;;7.37;5.10;;;;;;;3.94;100.00;94915.25;5031332;28;20271;-66
2021/12/17 10:19:42;;;;;;;10.57;7.53;;;;;;;4.00;100.00;94914.91;5032417;28;20569;-62
2021/12/17 10:22:13;;;;;;;6.90;5.37;;;;;;;4.08;100.00;94900.22;5033208;28;20197;-62
2021/12/17 10:24:43;;;;;;;7.90;5.90;;;;;;;4.15;100.00;94888.91;5032377;28;20278;-62
2021/12/17 10:27:25;;;;;;;6.60;5.27;;;;;;;4.18;100.00;94897.06;5033065;28;20325;-66
2021/12/17 10:29:51;;;;;;;8.07;5.97;;;;;;;4.14;100.00;94887.28;5032266;28;20766;-63
2021/12/17 10:32:23;;;;;;;5.33;4.53;;;;;;;4.31;100.00;94888.84;5032905;28;20202;-65
2021/12/17 10:35:03;;;;;;;6.63;5.17;;;;;;;4.13;100.00;94900.75;5031824;28;20217;-62
2021/12/17 10:37:38;;;;;;;8.20;5.07;;;;;;;4.02;100.00;94890.50;5032365;28;20202;-64
2021/12/17 10:40:15;;;;;;;5.83;4.60;;;;;;;3.93;100.00;94866.66;5032037;28;20173;-65
2021/12/17 10:42:47;;;;;;;9.37;5.47;;;;;;;4.07;100.00;94875.94;5032583;28;20247;-64
2021/12/17 10:45:23;;;;;;;10.27;5.77;;;;;;;4.11;100.00;94864.81;5032178;28;20162;-64
2021/12/17 10:48:01;;;;;;;11.77;6.53;;;;;;;4.16;100.00;94853.59;5031176;28;20260;-62
2021/12/17 10:50:27;;;;;;;5.20;4.10;;;;;;;4.22;100.00;94865.81;5032345;28;20275;-65
2021/12/17 10:52:56;;;;;;;7.20;4.70;;;;;;;4.19;100.00;94862.66;5030853;28;20186;-63
2021/12/17 10:55:24;;;;;;;4.37;3.70;;;;;;;4.25;100.00;94854.78;5031933;28;20182;-63
2021/12/17 10:57:51;;;;;;;5.37;3.43;;;;;;;4.25;100.00;94862.31;5030647;28;20714;-64
2021/12/17 11:00:18;;;;;;;5.67;4.27;;;;;;;4.25;100.00;94863.13;5031948;28;20189;-63
2021/12/17 11:02:51;;;;;;;6.80;4.67;;;;;;;4.23;100.00;94872.47;5030715;28;20663;-63
2021/12/17 11:05:18;;;;;;;5.30;4.10;;;;;;;4.26;100.00;94869.78;5032123;28;20652;-65
2021/12/17 11:07:45;;;;;;;5.27;3.80;;;;;;;4.17;100.00;94866.97;5030443;28;20184;-61
2021/12/17 11:10:11;;;;;;;6.67;4.83;;;;;;;4.14;100.00;94857.91;5031753;28;20674;-61
2021/12/17 11:12:40;;;;;;;6.57;4.80;;;;;;;4.01;100.00;94848.63;5032602;28;20241;-64
2021/12/17 11:15:37;;;;;;;8.13;5.20;;;;;;;4.00;100.00;94854.56;5030407;28;20185;-63
2021/12/17 11:18:05;;;;;;;7.30;4.87;;;;;;;3.94;100.00;94850.66;5026235;28;20739;-65
2021/12/17 11:20:37;;;;;;;7.60;5.40;;;;;;;4.08;100.00;94850.69;5031690;28;20186;-65
2021/12/17 11:23:10;;;;;;;6.47;5.07;;;;;;;4.16;100.00;94851.06;5031596;28;20190;-65
2021/12/17 11:25:38;;;;;;;6.63;5.20;;;;;;;4.00;100.00;94842.78;5031574;28;20237;-65
2021/12/17 11:28:07;;;;;;;4.97;4.30;;;;;;;3.94;100.00;94835.56;5031689;28;20205;-62
2021/12/17 11:30:36;;;;;;;6.50;4.73;;;;;;;3.92;100.00;94829.81;5031539;28;20206;-62
2021/12/17 11:33:04;;;;;;;6.37;4.90;;;;;;;4.06;100.00;94816.50;5031874;28;20273;-63
2021/12/17 11:35:31;;;;;;;6.40;4.37;;;;;;;4.11;100.00;94815.31;5031398;28;20178;-65
2021/12/17 11:38:10;;;;;;;5.30;4.20;;;;;;;4.17;100.00;94811.63;5031609;28;20235;-61
2021/12/17 11:43:33;;;;;;;4.83;4.00;;;;;;;4.11;100.00;94804.44;5038725;22;20230;-64
2021/12/17 11:46:02;;;;;;;5.50;3.93;;;;;;;4.09;100.00;94794.47;5031856;28;20335;-64
2021/12/17 11:48:31;;;;;;;4.07;3.53;;;;;;;4.03;100.00;94797.34;5031321;28;20181;-64
2021/12/17 11:51:06;;;;;;;4.33;3.30;;;;;;;4.01;100.00;94790.78;5032943;28;20236;-63
2021/12/17 11:53:32;;;;;;;3.27;2.97;;;;;;;3.99;100.00;94800.13;5035657;28;20177;-63
2021/12/17 11:56:02;;;;;;;3.27;2.97;;;;;;;4.00;100.00;94781.63;5035495;28;20213;-63
2021/12/17 11:58:48;;;;;;;4.43;3.07;;;;;;;3.98;100.00;94790.97;5035428;28;20196;-61
2021/12/17 12:01:57;;;;;;;3.83;3.30;;;;;;;3.90;100.00;94780.53;5035695;28;20563;-63
2021/12/17 12:04:32;;;;;;;3.50;2.70;;;;;;;3.88;100.00;94774.78;5035556;28;20166;-66
2021/12/17 12:07:09;;;;;;;3.20;2.87;;;;;;;3.82;100.00;94770.06;5035453;28;20296;-65
2021/12/17 12:09:59;;;;;;;3.77;3.40;;;;;;;3.81;100.00;94766.78;5034963;28;20194;-65
2021/12/17 12:12:30;;;;;;;3.27;2.80;;;;;;;3.81;100.00;94758.41;5033913;28;20213;-64
2021/12/17 12:15:27;;;;;;;7.70;3.13;;;;;;;3.71;100.00;94764.84;5035155;28;20170;-65
2021/12/17 12:18:06;;;;;;;5.83;3.00;;;;;;;3.70;100.00;94770.78;5033716;28;20189;-65
2021/12/17 12:20:37;;;;;;;5.03;3.50;;;;;;;3.69;100.00;94759.94;5034886;28;20181;-64
2021/12/17 12:23:27;;;;;;;3.97;3.27;;;;;;;3.67;100.00;94761.72;5034896;28;20792;-65
2021/12/17 12:26:04;;;;;;;4.83;3.53;;;;;;;3.60;100.00;94750.38;5034888;28;20210;-66
2021/12/17 12:28:45;;;;;;;5.53;3.80;;;;;;;3.62;100.00;94748.59;5034664;28;20174;-66
2021/12/17 12:31:36;;;;;;;4.80;3.13;;;;;;;3.63;100.00;94751.91;5034892;28;20366;-65
2021/12/17 12:34:04;;;;;;;3.70;3.23;;;;;;;3.65;100.00;94748.44;5034724;28;20736;-61
2021/12/17 12:37:05;;;;;;;4.33;3.77;;;;;;;3.65;100.00;94732.53;5033479;28;20673;-66
2021/12/17 12:40:02;;;;;;;4.70;3.70;;;;;;;3.67;100.00;94741.63;5034669;28;20305;-63
2021/12/17 12:42:35;;;;;;;5.37;3.33;;;;;;;3.71;100.00;94734.69;5034186;28;20291;-64
2021/12/17 12:45:03;;;;;;;6.03;3.73;;;;;;;3.71;100.00;94732.19;5034302;28;20224;-64
2021/12/17 12:47:31;;;;;;;4.73;3.47;;;;;;;3.70;100.00;94736.41;5034137;28;20202;-65
2021/12/17 12:50:03;;;;;;;6.23;3.57;;;;;;;3.70;100.00;94740.59;5032897;28;20691;-64
2021/12/17 12:52:31;;;;;;;5.30;4.27;;;;;;;3.68;100.00;94734.84;5034389;28;20210;-65
2021/12/17 12:55:01;;;;;;;5.73;3.83;;;;;;;3.65;100.00;94742.59;5034074;28;20170;-64
2021/12/17 12:57:29;;;;;;;4.47;3.33;;;;;;;3.68;100.00;94753.28;5032606;28;20271;-64
2021/12/17 13:00:00;;;;;;;4.80;3.40;;;;;;;3.67;100.00;94758.38;5034000;28;20565;-63
2021/12/17 13:02:26;;;;;;;4.93;3.50;;;;;;;3.63;100.00;94755.25;5033782;28;20221;-65
2021/12/17 13:04:54;;;;;;;3.90;3.10;;;;;;;3.69;100.00;94751.56;5033933;28;20301;-65
2021/12/17 13:07:43;;;;;;;3.00;2.40;;;;;;;3.67;100.00;94755.88;5034108;28;20213;-63
2021/12/17 13:10:22;;;;;;;5.50;2.77;;;;;;;3.67;100.00;94738.28;5033810;28;20217;-63
2021/12/17 13:21:35;;;;;;;2.87;1.97;;;;;;;3.72;100.00;94747.19;5025696;28;20210;-62
2021/12/17 13:24:13;;;;;;;2.53;2.30;;;;;;;3.77;100.00;94762.81;5019292;28;20180;-64
2021/12/17 13:26:54;;;;;;;2.33;2.10;;;;;;;3.78;100.00;94776.19;5032215;28;20664;-64
2021/12/17 13:29:24;;;;;;;2.57;2.37;;;;;;;3.76;100.00;94767.91;5033422;28;20648;-65
2021/12/17 13:32:01;;;;;;;3.27;2.17;;;;;;;3.73;100.00;94748.00;5033953;28;20640;-63
2021/12/17 13:34:36;;;;;;;2.50;2.10;;;;;;;3.69;100.00;94749.06;5033377;28;20170;-65
2021/12/17 13:37:22;;;;;;;2.83;2.13;;;;;;;3.67;100.00;94745.81;5032233;28;20200;-64
2021/12/17 13:39:50;;;;;;;6.20;2.20;;;;;;;3.68;100.00;94760.81;5031012;28;20649;-62
2021/12/17 13:42:20;;;;;;;2.10;1.73;;;;;;;3.60;100.00;94745.34;5029306;28;20220;-60
2021/12/17 13:44:49;;;;;;;3.20;2.60;;;;;;;3.71;100.00;94742.25;5033207;28;20230;-64
2021/12/17 13:47:22;;;;;;;3.60;2.57;;;;;;;3.63;100.00;94759.47;5031949;28;20209;-65
2021/12/17 13:50:00;;;;;;;4.30;2.67;;;;;;;3.65;100.00;94757.66;5033405;28;20205;-61
2021/12/17 13:52:29;;;;;;;3.60;2.67;;;;;;;3.62;100.00;94765.38;5033079;28;20644;-64
2021/12/17 13:54:57;;;;;;;3.93;3.47;;;;;;;3.61;100.00;94753.72;5033276;28;20210;-66
2021/12/17 13:57:26;;;;;;;4.57;2.80;;;;;;;3.58;100.00;94768.94;5033257;28;20210;-64
2021/12/17 13:59:52;;;;;;;4.43;2.80;;;;;;;3.55;100.00;94732.25;5032957;28;20194;-64
2021/12/17 14:02:20;;;;;;;5.37;3.00;;;;;;;3.54;100.00;94740.66;5032549;28;20747;-63
2021/12/17 14:05:06;;;;;;;4.87;3.07;;;;;;;3.59;100.00;94747.97;5031149;28;20175;-63
2021/12/17 14:07:33;;;;;;;4.10;2.97;;;;;;;3.52;100.00;94727.38;5032363;28;20573;-62
2021/12/17 14:10:10;;;;;;;4.07;3.10;;;;;;;3.55;100.00;94723.91;5030975;28;20769;-63
2021/12/17 14:12:39;;;;;;;4.13;2.73;;;;;;;3.53;100.00;94745.78;5031125;28;20210;-65
2021/12/17 14:15:27;;;;;;;2.70;2.50;;;;;;;3.56;100.00;94738.06;5032320;28;20178;-65
2021/12/17 14:17:59;;;;;;;4.97;2.63;;;;;;;3.57;100.00;94737.19;5014882;28;20719;-67
2021/12/17 14:20:36;;;;;;;2.53;2.33;;;;;;;3.54;100.00;94764.97;5032491;28;20186;-62
2021/12/17 14:23:22;;;;;;;3.83;3.20;;;;;;;3.53;100.00;94748.31;5032534;28;20178;-65
2021/12/17 14:26:00;;;;;;;6.97;3.73;;;;;;;3.53;100.00;94734.03;5031227;28;20208;-64
2021/12/17 14:28:28;;;;;;;3.93;3.30;;;;;;;3.46;100.00;94760.41;5032585;28;20178;-64
2021/12/17 14:31:01;;;;;;;4.00;2.93;;;;;;;3.46;100.00;94747.00;5032090;28;20232;-62
2021/12/17 14:33:39;;;;;;;4.60;2.97;;;;;;;3.41;100.00;94760.63;5031377;28;20180;-64
2021/12/17 14:36:06;;;;;;;4.60;2.63;;;;;;;3.29;100.00;94771.38;5030961;28;20691;-66
2021/12/17 14:38:57;;;;;;;4.90;3.27;;;;;;;3.23;100.00;94761.66;5030938;28;20172;-64
2021/12/17 14:41:33;;;;;;;3.43;2.50;;;;;;;3.12;100.00;94743.88;5030224;28;20210;-64
2021/12/17 14:44:04;;;;;;;3.80;3.07;;;;;;;3.07;100.00;94755.06;5031932;28;20174;-63
2021/12/17 14:46:47;;;;;;;3.30;2.97;;;;;;;2.94;100.00;94741.53;5030959;28;20639;-65
2021/12/17 15:05:12;;;;;;;3.70;3.30;;;;;;;2.89;100.00;94766.09;5031717;28;20175;-65
2021/12/17 15:07:38;;;;;;;5.50;3.73;;;;;;;2.85;100.00;94765.41;5031857;28;20201;-66
2021/12/17 15:10:07;;;;;;;4.70;3.90;;;;;;;2.81;100.00;94768.19;5030866;28;20198;-64
2021/12/17 15:15:00;;;;;;;5.43;3.97;;;;;;;2.78;100.00;94769.16;5031015;28;20682;-65
2021/12/17 15:17:25;;;;;;;8.40;5.00;;;;;;;2.76;100.00;94785.19;5031692;28;20665;-61